Time;durP1;ratioP1;P1;durP2;ratioP2;P2;SDS_P1;SDS_P2;PMS_P1;PMS_P2;Temp;Humidity;BMP_temperature;BMP_pressure;BME280_temperature;BME280_humidity;BME280_pressure;Samples;Min_cycle;Max_cycle;Signal;HPM_P1;HPM_P2
2022/10/09 00:04:24;;;;;;;13.50;5.30;;;;;;;5.67;65.15;100900.69;10385238;28;20059;-66
2022/10/09 00:09:25;;;;;;;12.75;4.80;;;;;;;5.47;65.59;100900.31;10387202;28;20060;-67
2022/10/09 00:14:27;;;;;;;8.73;4.60;;;;;;;5.58;65.50;100900.91;10382457;28;20053;-66
2022/10/09 00:19:28;;;;;;;10.23;4.80;;;;;;;5.53;65.50;100895.81;10384781;28;20620;-67
2022/10/09 00:24:30;;;;;;;19.13;5.45;;;;;;;5.46;65.37;100890.81;10385257;28;20067;-66
2022/10/09 00:29:32;;;;;;;11.15;4.47;;;;;;;5.50;65.38;100882.06;10386589;28;20046;-66
2022/10/09 00:34:33;;;;;;;37.22;5.90;;;;;;;5.46;65.38;100891.69;10388481;28;20053;-66
2022/10/09 00:39:35;;;;;;;82.15;7.20;;;;;;;5.30;65.42;100897.25;10386259;28;20072;-66
2022/10/09 00:44:46;;;;;;;67.85;6.70;;;;;;;5.23;65.82;100904.31;10382030;28;20053;-66
2022/10/09 00:49:50;;;;;;;86.03;7.07;;;;;;;5.25;65.66;100894.75;10387082;28;20050;-66
2022/10/09 00:54:53;;;;;;;14.30;4.80;;;;;;;5.23;65.54;100901.72;10387890;28;20041;-66
2022/10/09 00:59:55;;;;;;;12.38;4.45;;;;;;;5.20;65.53;100900.94;10377110;28;20894;-66
2022/10/09 01:04:57;;;;;;;20.60;5.10;;;;;;;5.19;65.10;100894.88;10384742;28;20057;-66
2022/10/09 01:10:10;;;;;;;54.17;6.05;;;;;;;5.09;65.68;100888.22;10387790;28;20056;-65
2022/10/09 01:15:18;;;;;;;23.45;4.63;;;;;;;5.11;65.70;100888.16;10382832;28;20050;-66
2022/10/09 01:20:26;;;;;;;96.45;6.50;;;;;;;5.06;65.56;100883.09;10385970;28;20041;-66
2022/10/09 01:25:35;;;;;;;111.13;7.32;;;;;;;5.08;65.51;100876.16;10386279;28;20057;-66
2022/10/09 01:30:37;;;;;;;216.05;9.38;;;;;;;4.88;65.28;100872.28;10386086;28;20045;-67
2022/10/09 01:35:40;;;;;;;175.95;8.20;;;;;;;4.86;65.93;100881.84;10383016;28;20498;-66
2022/10/09 01:40:42;;;;;;;395.88;16.25;;;;;;;4.69;65.53;100867.50;10384094;28;20037;-66
2022/10/09 01:45:46;;;;;;;120.88;8.23;;;;;;;4.67;66.21;100879.63;10381656;28;20394;-66
2022/10/09 01:51:01;;;;;;;166.73;7.60;;;;;;;4.72;66.27;100883.88;10383880;28;20049;-66
2022/10/09 01:56:16;;;;;;;192.77;8.85;;;;;;;4.53;65.95;100881.66;10383388;28;21166;-66
2022/10/09 02:01:30;;;;;;;174.98;9.48;;;;;;;4.55;66.30;100889.38;10385621;28;20079;-66
2022/10/09 02:06:34;;;;;;;214.70;9.88;;;;;;;4.65;66.31;100881.41;10391606;28;20054;-66
2022/10/09 02:11:39;;;;;;;143.70;6.90;;;;;;;4.89;65.93;100880.03;10392755;28;20049;-67
2022/10/09 02:16:56;;;;;;;89.30;6.55;;;;;;;4.83;66.11;100874.09;10391386;28;20064;-67
2022/10/09 02:22:03;;;;;;;104.72;6.95;;;;;;;4.96;66.11;100860.00;10392542;28;20040;-67
2022/10/09 02:27:05;;;;;;;89.60;7.50;;;;;;;5.07;66.16;100871.84;10392454;28;20511;-66
2022/10/09 02:32:08;;;;;;;167.93;9.05;;;;;;;5.27;65.66;100866.19;10389998;28;20057;-66
2022/10/09 02:37:10;;;;;;;181.75;8.65;;;;;;;5.25;65.65;100863.63;10390799;28;20054;-67
2022/10/09 02:42:11;;;;;;;218.48;9.45;;;;;;;5.39;65.45;100871.94;10391046;28;20049;-67
2022/10/09 02:47:13;;;;;;;191.07;10.30;;;;;;;5.24;65.76;100861.94;10389437;28;20512;-67
2022/10/09 02:52:14;;;;;;;242.15;12.85;;;;;;;5.19;65.97;100858.59;10390649;28;20054;-66
2022/10/09 02:57:16;;;;;;;183.85;10.82;;;;;;;5.36;66.13;100865.97;10390618;28;20069;-67
2022/10/09 03:02:18;;;;;;;208.35;10.43;;;;;;;5.52;66.06;100850.00;10389031;28;20053;-67
2022/10/09 03:07:19;;;;;;;154.88;10.25;;;;;;;5.36;65.84;100858.19;10383279;28;20143;-67
2022/10/09 03:12:21;;;;;;;227.13;10.00;;;;;;;5.38;66.08;100861.59;10383593;28;20052;-66
2022/10/09 03:17:23;;;;;;;260.45;15.13;;;;;;;5.52;66.04;100867.31;10383407;28;20135;-66
2022/10/09 03:22:24;;;;;;;76.18;7.93;;;;;;;5.64;66.22;100856.63;10383252;28;20049;-67
2022/10/09 03:27:26;;;;;;;492.42;22.00;;;;;;;5.82;65.63;100866.53;10383857;28;20049;-67
2022/10/09 03:32:28;;;;;;;224.35;14.10;;;;;;;5.57;66.06;100867.22;10388978;28;20417;-66
2022/10/09 03:37:30;;;;;;;97.95;8.27;;;;;;;5.73;66.24;100866.78;10388993;28;20600;-67
2022/10/09 03:42:32;;;;;;;98.82;10.00;;;;;;;5.88;65.92;100862.97;10389337;28;20413;-66
2022/10/09 03:47:33;;;;;;;477.95;17.05;;;;;;;5.80;65.29;100859.72;10390991;28;20068;-66
2022/10/09 03:52:35;;;;;;;212.48;11.68;;;;;;;5.57;66.07;100857.69;10390060;28;20048;-66
2022/10/09 03:57:37;;;;;;;277.38;13.48;;;;;;;5.68;65.95;100860.84;10389649;28;20060;-66
2022/10/09 04:02:39;;;;;;;678.65;23.25;;;;;;;5.50;66.06;100858.72;10388857;28;20053;-67
2022/10/09 04:07:40;;;;;;;611.05;24.17;;;;;;;5.47;66.09;100864.00;10388452;28;20069;-67
2022/10/09 04:12:42;;;;;;;547.97;22.40;;;;;;;5.50;66.38;100859.56;10389421;28;20522;-66
2022/10/09 04:17:44;;;;;;;150.00;10.27;;;;;;;5.61;66.48;100855.88;10389362;28;20046;-67
2022/10/09 04:22:46;;;;;;;566.25;36.60;;;;;;;5.58;66.30;100861.97;10388565;28;20049;-66
2022/10/09 04:27:48;;;;;;;268.50;15.18;;;;;;;5.36;66.52;100856.47;10386858;28;20057;-66
2022/10/09 04:32:49;;;;;;;172.57;11.13;;;;;;;5.52;66.71;100857.78;10388529;28;20077;-67
2022/10/09 04:37:52;;;;;;;202.63;15.88;;;;;;;5.53;66.31;100854.28;10389383;28;20049;-66
2022/10/09 04:42:53;;;;;;;232.18;12.93;;;;;;;5.43;66.78;100852.00;10384981;28;20651;-66
2022/10/09 04:47:55;;;;;;;317.65;22.20;;;;;;;5.58;66.30;100856.78;10387869;28;20567;-66
2022/10/09 04:52:57;;;;;;;354.88;15.02;;;;;;;5.66;66.46;100854.00;10388147;28;20608;-66
2022/10/09 04:57:58;;;;;;;375.00;21.67;;;;;;;5.52;66.17;100842.22;10386265;28;20045;-67
2022/10/09 05:03:00;;;;;;;372.80;24.80;;;;;;;5.42;66.12;100852.88;10385980;28;20050;-67
2022/10/09 05:08:02;;;;;;;233.48;16.45;;;;;;;5.32;66.61;100844.47;10386286;28;20064;-66
2022/10/09 05:13:04;;;;;;;288.73;15.73;;;;;;;5.51;66.28;100844.88;10386340;28;20508;-66
2022/10/09 05:18:06;;;;;;;280.40;16.20;;;;;;;5.55;66.23;100841.31;10386496;28;20087;-66
2022/10/09 05:23:07;;;;;;;135.45;11.95;;;;;;;5.41;66.32;100843.41;10375814;28;20037;-66
2022/10/09 05:28:09;;;;;;;156.73;13.77;;;;;;;5.42;66.43;100845.09;10384954;28;20053;-67
2022/10/09 05:33:11;;;;;;;189.75;15.43;;;;;;;5.41;66.29;100843.41;10386751;28;20057;-66
2022/10/09 05:38:12;;;;;;;171.73;11.20;;;;;;;5.49;66.51;100849.25;10379585;28;20057;-67
2022/10/09 05:43:14;;;;;;;241.75;15.25;;;;;;;5.66;66.08;100849.66;10385769;28;20486;-67
2022/10/09 05:48:16;;;;;;;260.15;19.92;;;;;;;5.55;65.89;100851.69;10384937;28;20068;-67
2022/10/09 05:53:17;;;;;;;208.32;18.50;;;;;;;5.34;65.83;100852.19;10384728;28;20072;-66
2022/10/09 05:58:19;;;;;;;215.45;22.92;;;;;;;5.17;66.42;100854.31;10383619;28;20515;-67
2022/10/09 06:03:20;;;;;;;189.00;19.77;;;;;;;4.98;66.68;100842.69;10381765;28;20182;-64
2022/10/09 06:08:22;;;;;;;205.25;18.88;;;;;;;4.97;66.90;100844.41;10386441;28;20411;-66
2022/10/09 06:13:23;;;;;;;161.80;19.00;;;;;;;4.83;66.93;100848.19;10385879;28;20107;-67
2022/10/09 06:18:26;;;;;;;120.13;15.50;;;;;;;5.01;66.71;100843.47;10386892;28;20050;-67
2022/10/09 06:23:30;;;;;;;138.77;12.57;;;;;;;5.26;66.51;100846.34;10383580;28;20068;-67
2022/10/09 06:28:34;;;;;;;66.88;8.93;;;;;;;5.34;66.12;100852.19;10384907;28;20054;-67
2022/10/09 06:33:38;;;;;;;169.60;14.25;;;;;;;5.51;65.88;100853.47;10384359;28;20406;-66
2022/10/09 06:38:41;;;;;;;226.00;17.85;;;;;;;5.49;65.56;100854.44;10386614;28;20053;-66
2022/10/09 06:43:50;;;;;;;123.55;12.85;;;;;;;5.23;66.09;100857.63;10385687;28;20049;-66
2022/10/09 06:48:51;;;;;;;255.13;15.98;;;;;;;5.33;66.28;100863.47;10385240;28;20058;-66
2022/10/09 06:53:55;;;;;;;119.25;11.98;;;;;;;5.07;66.58;100858.00;10385851;28;20093;-66
2022/10/09 06:59:01;;;;;;;136.27;10.68;;;;;;;5.23;66.57;100859.38;10384314;28;20057;-66
2022/10/09 07:04:06;;;;;;;136.68;12.82;;;;;;;5.40;66.03;100862.44;10386687;28;20054;-66
2022/10/09 07:09:10;;;;;;;43.17;8.73;;;;;;;5.57;65.99;100860.28;10394247;28;20217;-66
2022/10/09 07:14:14;;;;;;;100.00;12.77;;;;;;;5.79;65.41;100858.84;10393702;28;20060;-66
2022/10/09 07:19:17;;;;;;;215.50;14.15;;;;;;;5.93;65.29;100858.50;10393558;28;20060;-66
2022/10/09 07:24:19;;;;;;;226.18;20.10;;;;;;;5.84;65.14;100869.97;10394082;28;20053;-66
2022/10/09 07:29:21;;;;;;;85.50;11.07;;;;;;;5.90;65.55;100864.59;10393289;28;20053;-65
2022/10/09 07:34:22;;;;;;;155.13;14.98;;;;;;;6.18;64.98;100869.94;10392575;28;20512;-65
2022/10/09 07:39:24;;;;;;;134.05;13.93;;;;;;;6.05;64.65;100864.22;10393276;28;20494;-65
2022/10/09 07:44:27;;;;;;;183.38;12.18;;;;;;;5.81;64.84;100875.25;10393015;28;20060;-65
2022/10/09 07:49:29;;;;;;;115.22;12.18;;;;;;;5.94;65.20;100868.81;10393353;28;20056;-65
2022/10/09 07:54:31;;;;;;;171.57;13.40;;;;;;;6.27;64.55;100860.19;10392800;28;20461;-65
2022/10/09 07:59:33;;;;;;;224.32;17.10;;;;;;;6.29;64.00;100862.72;10392731;28;20219;-65
2022/10/09 08:04:36;;;;;;;236.10;17.02;;;;;;;6.42;64.20;100858.03;10391703;28;20057;-65
2022/10/09 08:09:38;;;;;;;143.23;11.13;;;;;;;6.83;63.92;100860.31;10391915;28;20065;-65
2022/10/09 08:14:40;;;;;;;69.57;12.40;;;;;;;6.86;63.60;100855.88;10391320;28;20049;-65
2022/10/09 08:19:41;;;;;;;139.93;12.35;;;;;;;6.77;63.54;100855.28;10390118;28;20254;-65
2022/10/09 08:24:43;;;;;;;112.90;13.48;;;;;;;6.91;63.29;100843.59;10390771;28;20068;-65
2022/10/09 08:29:45;;;;;;;81.05;12.25;;;;;;;6.82;63.60;100838.66;10389082;28;20863;-65
2022/10/09 08:34:46;;;;;;;40.45;10.77;;;;;;;7.13;63.64;100841.16;10390945;28;20053;-65
2022/10/09 08:39:48;;;;;;;39.78;12.05;;;;;;;7.29;62.70;100834.59;10389963;28;20552;-65
2022/10/09 08:44:50;;;;;;;57.60;11.80;;;;;;;7.34;62.60;100835.28;10390004;28;20060;-66
2022/10/09 08:49:55;;;;;;;23.02;12.75;;;;;;;7.36;62.88;100830.03;10391291;28;20053;-65
2022/10/09 08:55:02;;;;;;;23.95;13.40;;;;;;;7.49;62.61;100826.16;10389454;28;20707;-65
2022/10/09 09:00:16;;;;;;;17.33;13.20;;;;;;;7.64;62.21;100821.28;10389723;28;20052;-65
2022/10/09 09:05:45;;;;;;;19.80;13.82;;;;;;;7.75;62.08;100820.91;10390310;28;20421;-66
2022/10/09 09:10:53;;;;;;;13.38;10.35;;;;;;;7.95;61.95;100808.06;10384145;28;20184;-65
2022/10/09 09:16:14;;;;;;;15.00;10.38;;;;;;;7.85;61.90;100804.91;10387619;28;20124;-65
2022/10/09 09:21:46;;;;;;;12.77;9.70;;;;;;;7.67;62.31;100792.50;10388333;28;20176;-77
2022/10/09 09:26:50;;;;;;;;;;;;;;;7.64;62.97;100787.44;10389010;28;20065;-76
2022/10/09 09:31:59;;;;;;;13.55;9.50;;;;;;;8.18;62.10;100778.59;10387326;28;19931;-78
2022/10/09 09:37:02;;;;;;;11.40;7.95;;;;;;;8.67;60.93;100770.63;10390769;28;20053;-77
2022/10/09 09:42:13;;;;;;;10.32;7.80;;;;;;;8.90;60.57;100761.91;10389387;28;20049;-77
2022/10/09 09:47:24;;;;;;;11.90;7.65;;;;;;;9.31;60.04;100755.88;10391247;28;20050;-76
2022/10/09 09:52:33;;;;;;;14.10;7.30;;;;;;;9.35;60.40;100739.16;10413169;28;20156;-77
2022/10/09 09:57:44;;;;;;;9.60;6.30;;;;;;;9.40;60.19;100732.81;10383699;28;20060;-76
2022/10/09 10:02:45;;;;;;;;;;;;;;;9.30;60.75;100725.47;10389805;28;20494;-76
2022/10/09 10:07:50;;;;;;;8.35;5.55;;;;;;;9.69;60.05;100705.50;10387859;28;19921;-77
2022/10/09 10:12:52;;;;;;;9.05;6.30;;;;;;;10.21;59.47;100697.03;10388934;28;20079;-77
2022/10/09 10:17:59;;;;;;;8.73;5.40;;;;;;;10.38;58.54;100684.00;10386268;28;20042;-78
2022/10/09 10:23:01;;;;;;;10.30;6.20;;;;;;;10.55;58.46;100677.97;10381864;28;20431;-77
2022/10/09 10:28:14;;;;;;;10.48;5.20;;;;;;;10.80;57.37;100672.41;10380475;28;20041;-77
2022/10/09 10:33:21;;;;;;;9.75;5.30;;;;;;;11.10;57.42;100653.47;10383658;28;20053;-77
2022/10/09 10:38:40;;;;;;;10.65;5.03;;;;;;;11.20;56.07;100648.59;10377944;28;20046;-75
2022/10/09 10:43:47;;;;;;;9.38;4.63;;;;;;;11.20;57.52;100632.88;10384347;28;20050;-75
2022/10/09 10:48:50;;;;;;;8.18;4.70;;;;;;;11.26;57.35;100627.34;10383724;28;20068;-75
2022/10/09 10:54:23;;;;;;;8.60;4.55;;;;;;;11.37;57.00;100621.53;10384483;28;20050;-75
2022/10/09 10:59:32;;;;;;;7.22;4.15;;;;;;;11.78;56.90;100614.97;10384172;28;20045;-76
2022/10/09 11:04:52;;;;;;;9.75;4.40;;;;;;;11.85;56.46;100611.94;10383184;28;20053;-76
2022/10/09 11:09:56;;;;;;;11.07;4.30;;;;;;;12.08;56.65;100600.19;10384675;28;20960;-74
2022/10/09 11:15:36;;;;;;;8.05;4.10;;;;;;;12.31;55.70;100586.69;10383107;28;20053;-74
2022/10/09 11:20:56;;;;;;;6.80;3.75;;;;;;;12.60;55.52;100580.59;10382355;28;20045;-74
2022/10/09 11:26:06;;;;;;;7.63;3.55;;;;;;;12.79;54.88;100578.59;10382234;28;20900;-75
2022/10/09 11:31:28;;;;;;;8.93;3.97;;;;;;;12.79;54.46;100560.22;10379275;28;20505;-75
2022/10/09 11:36:36;;;;;;;9.38;3.80;;;;;;;13.09;54.26;100554.09;10374313;28;20057;-77
2022/10/09 11:41:39;;;;;;;8.45;3.10;;;;;;;13.36;53.85;100541.91;10384777;28;20042;-75
2022/10/09 11:46:59;;;;;;;8.50;3.25;;;;;;;13.48;52.71;100536.75;10381118;28;20092;-77
2022/10/09 11:52:20;;;;;;;7.85;2.97;;;;;;;13.77;52.31;100522.66;10387242;28;20631;-77
2022/10/09 11:57:27;;;;;;;5.88;2.90;;;;;;;14.07;51.79;100511.94;10389666;28;20256;-77
2022/10/09 12:02:29;;;;;;;6.28;2.33;;;;;;;14.08;51.68;100505.75;10384637;28;20084;-78
2022/10/09 12:07:35;;;;;;;7.03;1.88;;;;;;;14.30;47.88;100502.53;10378917;28;20316;-77
2022/10/09 12:12:37;;;;;;;5.75;1.90;;;;;;;14.77;46.53;100488.84;10388755;28;20053;-78
2022/10/09 12:17:48;;;;;;;5.88;1.80;;;;;;;14.92;43.02;100478.09;10388930;28;20549;-78
2022/10/09 12:23:00;;;;;;;4.90;1.70;;;;;;;15.00;43.63;100473.16;10387539;28;20505;-77
2022/10/09 12:28:47;;;;;;;7.15;2.20;;;;;;;15.14;41.79;100462.50;10414380;28;20474;-78
2022/10/09 12:34:11;;;;;;;5.75;1.98;;;;;;;15.28;43.26;100446.59;10388015;28;20329;-77
2022/10/09 12:39:23;;;;;;;8.77;1.95;;;;;;;15.47;43.47;100447.91;10377424;28;20045;-76
2022/10/09 12:44:32;;;;;;;6.70;1.77;;;;;;;15.65;42.54;100446.59;10386722;28;20056;-76
2022/10/09 12:49:34;;;;;;;3.60;1.70;;;;;;;15.71;41.14;100439.09;10386735;28;20057;-77
2022/10/09 12:54:42;;;;;;;3.28;1.70;;;;;;;15.84;39.93;100436.38;10384568;28;20477;-75
2022/10/09 12:59:45;;;;;;;4.47;2.33;;;;;;;15.82;40.63;100419.81;10386101;28;20214;-78
2022/10/09 13:04:56;;;;;;;7.82;2.08;;;;;;;15.86;39.16;100406.31;10385919;28;20663;-78
2022/10/09 13:10:00;;;;;;;4.47;1.92;;;;;;;15.96;40.14;100404.66;10388235;28;20060;-76
2022/10/09 13:15:05;;;;;;;4.68;1.70;;;;;;;16.02;40.16;100406.00;10387753;28;20140;-78
2022/10/09 13:20:15;;;;;;;4.20;2.00;;;;;;;15.98;38.89;100399.28;10388249;28;20046;-76
2022/10/09 13:25:17;;;;;;;;;;;;;;;15.69;40.49;100384.78;10387481;28;20045;-77
2022/10/09 13:30:19;;;;;;;5.43;1.80;;;;;;;15.94;39.48;100379.34;10389091;28;19925;-77
2022/10/09 13:35:20;;;;;;;5.18;1.70;;;;;;;16.17;39.16;100374.03;10388475;28;20049;-77
2022/10/09 13:40:22;;;;;;;6.40;1.98;;;;;;;16.13;39.47;100366.47;10387775;28;20081;-77
2022/10/09 13:45:24;;;;;;;4.70;1.70;;;;;;;16.37;39.35;100353.19;10387282;28;20516;-76
2022/10/09 13:50:26;;;;;;;5.13;1.80;;;;;;;16.41;39.99;100344.06;10386971;28;20462;-78
2022/10/09 13:55:27;;;;;;;4.35;1.70;;;;;;;16.48;39.30;100332.97;10385699;28;20501;-78
2022/10/09 14:00:29;;;;;;;4.47;1.40;;;;;;;16.48;38.12;100325.06;10387216;28;20052;-77
2022/10/09 14:05:31;;;;;;;5.43;1.83;;;;;;;16.30;37.92;100322.97;10386575;28;20050;-78
2022/10/09 14:10:33;;;;;;;5.85;1.73;;;;;;;16.40;37.61;100310.72;10376775;28;20456;-77
2022/10/09 14:15:38;;;;;;;4.97;1.77;;;;;;;16.36;37.00;100307.50;10386165;28;20049;-77
2022/10/09 14:20:39;;;;;;;5.15;1.73;;;;;;;16.26;36.69;100297.75;10385253;28;20061;-77
2022/10/09 14:25:41;;;;;;;4.05;1.50;;;;;;;16.33;37.23;100298.94;10386825;28;20049;-79
2022/10/09 14:30:43;;;;;;;3.97;1.70;;;;;;;16.31;37.07;100292.94;10386090;28;20556;-78
2022/10/09 14:35:44;;;;;;;3.90;1.60;;;;;;;16.33;36.75;100280.47;10388303;28;20140;-79
2022/10/09 14:40:46;;;;;;;3.80;1.60;;;;;;;16.21;37.64;100280.47;10386262;28;20041;-79
2022/10/09 14:45:48;;;;;;;6.40;1.67;;;;;;;16.28;38.37;100272.09;10385348;28;20885;-80
2022/10/09 14:50:49;;;;;;;4.28;1.60;;;;;;;16.17;37.67;100257.09;10385959;28;20053;-77
2022/10/09 14:55:51;;;;;;;5.32;1.67;;;;;;;16.17;38.59;100246.53;10384910;28;20532;-79
2022/10/09 15:00:53;;;;;;;6.28;1.80;;;;;;;16.11;37.82;100234.66;10384879;28;20057;-79
2022/10/09 15:06:01;;;;;;;4.88;1.70;;;;;;;16.00;37.07;100231.16;10383960;28;20394;-77
2022/10/09 15:11:03;;;;;;;2.05;1.30;;;;;;;16.01;37.40;100227.56;10386513;28;20049;-77
2022/10/09 15:16:14;;;;;;;6.60;1.75;;;;;;;16.00;37.44;100220.59;10386105;28;20072;-79
2022/10/09 15:21:19;;;;;;;2.90;1.40;;;;;;;15.88;37.63;100218.91;10386459;28;20469;-77
2022/10/09 15:26:22;;;;;;;8.88;1.70;;;;;;;15.82;37.60;100214.09;10389210;28;20057;-77
2022/10/09 15:31:29;;;;;;;4.07;1.55;;;;;;;15.81;37.88;100202.75;10392940;28;20045;-77
2022/10/09 15:36:35;;;;;;;4.25;1.63;;;;;;;15.74;37.90;100203.31;10392869;28;20054;-78
2022/10/09 15:41:38;;;;;;;5.93;1.88;;;;;;;15.77;38.21;100200.44;10390367;28;20053;-77
2022/10/09 15:46:40;;;;;;;3.53;1.67;;;;;;;15.64;38.35;100195.28;10391879;28;20493;-79
2022/10/09 15:51:42;;;;;;;6.32;2.08;;;;;;;15.51;38.20;100191.06;10388019;28;20056;-79
2022/10/09 15:56:44;;;;;;;5.53;2.10;;;;;;;15.43;39.16;100192.44;10392411;28;20492;-79
2022/10/09 16:01:47;;;;;;;5.15;1.85;;;;;;;15.30;40.07;100186.44;10390018;28;20056;-79
2022/10/09 16:06:48;;;;;;;8.00;1.80;;;;;;;15.07;40.85;100183.81;10389899;28;20136;-79
2022/10/09 16:11:50;;;;;;;3.90;1.55;;;;;;;14.76;41.87;100181.78;10383275;28;20111;-79
2022/10/09 16:16:52;;;;;;;3.67;1.50;;;;;;;14.52;42.43;100179.94;10388455;28;20417;-79
2022/10/09 16:21:54;;;;;;;4.35;1.85;;;;;;;14.22;42.44;100191.78;10387228;28;20054;-79
2022/10/09 16:26:55;;;;;;;5.68;1.58;;;;;;;13.86;43.50;100187.28;10388734;28;20049;-78
2022/10/09 16:31:57;;;;;;;5.03;1.90;;;;;;;13.52;45.06;100183.50;10388515;28;20049;-78
2022/10/09 16:37:01;;;;;;;6.28;2.15;;;;;;;13.26;43.76;100186.19;10389272;28;20056;-78
2022/10/09 16:42:03;;;;;;;2.97;1.75;;;;;;;13.04;44.02;100180.66;10379727;28;20749;-79
2022/10/09 16:47:05;;;;;;;4.38;2.08;;;;;;;12.87;44.26;100179.13;10386062;28;20042;-78
2022/10/09 16:52:06;;;;;;;4.80;1.88;;;;;;;12.69;44.73;100181.19;10386573;28;20045;-78
2022/10/09 16:57:08;;;;;;;8.50;4.10;;;;;;;12.39;45.58;100177.06;10388301;28;20072;-78
2022/10/09 17:02:11;;;;;;;10.82;5.20;;;;;;;12.08;46.99;100183.34;10371232;28;20045;-79
2022/10/09 17:07:13;;;;;;;10.85;5.57;;;;;;;11.84;47.47;100188.31;10386732;28;20543;-79
2022/10/09 17:12:14;;;;;;;7.40;3.33;;;;;;;11.68;48.39;100186.72;10387288;28;20037;-79
2022/10/09 17:17:16;;;;;;;8.10;3.10;;;;;;;11.49;49.06;100189.56;10386492;28;20049;-78
2022/10/09 17:22:18;;;;;;;7.30;3.45;;;;;;;11.29;49.35;100190.72;10376577;28;21393;-66
2022/10/09 17:27:19;;;;;;;11.95;5.82;;;;;;;11.14;49.50;100194.25;10385848;28;20061;-66
2022/10/09 17:32:21;;;;;;;9.50;4.50;;;;;;;10.97;49.98;100193.53;10384379;28;20060;-65
2022/10/09 17:37:23;;;;;;;9.30;5.32;;;;;;;10.88;50.37;100202.72;10384225;28;20048;-65
2022/10/09 17:42:24;;;;;;;8.93;4.38;;;;;;;10.73;51.05;100208.81;10384383;28;20052;-65
2022/10/09 17:47:26;;;;;;;8.30;4.40;;;;;;;10.60;51.78;100202.59;10383432;28;20069;-64
2022/10/09 17:52:28;;;;;;;7.93;4.93;;;;;;;10.47;53.27;100201.56;10383293;28;20049;-65
2022/10/09 17:57:29;;;;;;;13.18;4.32;;;;;;;10.28;53.44;100193.03;10384380;28;20058;-64
2022/10/09 18:02:31;;;;;;;7.85;4.00;;;;;;;10.06;54.13;100192.50;10383047;28;20061;-65
2022/10/09 18:07:33;;;;;;;8.15;3.10;;;;;;;9.98;54.48;100194.69;10386017;28;20049;-64
2022/10/09 18:12:34;;;;;;;7.60;3.03;;;;;;;9.95;54.60;100182.63;10386252;28;20323;-65
2022/10/09 18:17:36;;;;;;;7.60;3.08;;;;;;;9.87;55.00;100176.97;10387088;28;20297;-65
2022/10/09 18:22:38;;;;;;;9.68;3.88;;;;;;;9.76;55.32;100178.47;10384798;28;20052;-65
2022/10/09 18:27:39;;;;;;;8.18;4.63;;;;;;;9.66;55.63;100178.09;10385472;28;20529;-65
2022/10/09 18:32:43;;;;;;;10.32;4.63;;;;;;;9.61;55.59;100174.84;10384129;28;20519;-65
2022/10/09 18:37:45;;;;;;;9.80;5.40;;;;;;;9.45;56.46;100176.56;10381751;28;20041;-64
2022/10/09 18:42:48;;;;;;;9.88;5.07;;;;;;;9.33;56.63;100172.81;10384801;28;20054;-65
2022/10/09 18:47:50;;;;;;;9.60;4.43;;;;;;;9.23;57.15;100171.59;10367461;28;20055;-65
2022/10/09 18:52:53;;;;;;;9.63;4.00;;;;;;;9.12;57.12;100158.22;10384421;28;20406;-64
2022/10/09 18:57:54;;;;;;;7.28;3.58;;;;;;;8.99;57.48;100157.16;10383274;28;20103;-65
2022/10/09 19:02:56;;;;;;;8.13;3.65;;;;;;;8.72;57.93;100154.16;10390758;28;20080;-64
2022/10/09 19:07:58;;;;;;;9.65;3.70;;;;;;;8.65;58.26;100160.56;10390843;28;20049;-64
2022/10/09 19:12:59;;;;;;;9.40;3.00;;;;;;;8.66;58.57;100148.38;10390991;28;20809;-63
2022/10/09 19:18:01;;;;;;;7.55;3.38;;;;;;;8.51;58.96;100152.56;10389708;28;20037;-63
2022/10/09 19:23:03;;;;;;;10.93;4.38;;;;;;;8.44;59.08;100148.56;10386317;28;20050;-64
2022/10/09 19:28:05;;;;;;;10.45;5.60;;;;;;;8.40;59.25;100156.59;10388291;28;20057;-64
2022/10/09 19:33:06;;;;;;;10.27;4.80;;;;;;;8.39;59.31;100150.53;10386449;28;20041;-63
2022/10/09 19:38:08;;;;;;;9.15;3.70;;;;;;;8.31;59.54;100146.59;10389577;28;20391;-63
2022/10/09 19:43:11;;;;;;;8.68;3.90;;;;;;;8.25;59.80;100144.28;10390130;28;20049;-64
2022/10/09 19:48:15;;;;;;;8.77;3.92;;;;;;;8.17;59.84;100142.03;10390280;28;20056;-63
2022/10/09 19:53:17;;;;;;;8.13;3.67;;;;;;;8.07;60.07;100142.50;10391549;28;20414;-64
2022/10/09 19:58:19;;;;;;;7.03;3.55;;;;;;;7.95;60.37;100143.91;10391088;28;20049;-64
2022/10/09 20:03:20;;;;;;;7.28;3.63;;;;;;;7.91;60.41;100140.63;10389663;28;20053;-64
2022/10/09 20:08:22;;;;;;;8.20;3.85;;;;;;;7.79;60.50;100140.31;10390997;28;20445;-63
2022/10/09 20:13:24;;;;;;;8.90;3.40;;;;;;;7.69;61.02;100132.06;10386741;28;20060;-64
2022/10/09 20:18:26;;;;;;;9.32;3.70;;;;;;;7.52;61.36;100131.97;10388112;28;20187;-63
2022/10/09 20:23:28;;;;;;;7.68;3.80;;;;;;;7.45;61.56;100133.16;10389757;28;20065;-63
2022/10/09 20:28:32;;;;;;;12.90;3.60;;;;;;;7.43;61.72;100134.13;10388468;28;20046;-64
2022/10/09 20:33:35;;;;;;;9.25;3.60;;;;;;;7.31;61.62;100129.44;10387294;28;20057;-63
2022/10/09 20:38:37;;;;;;;6.63;3.47;;;;;;;7.13;62.02;100131.09;10387196;28;20052;-63
2022/10/09 20:43:40;;;;;;;6.78;3.58;;;;;;;7.08;62.03;100133.06;10386763;28;20050;-63
2022/10/09 20:48:42;;;;;;;8.23;3.40;;;;;;;7.09;62.28;100119.13;10387569;28;20054;-63
2022/10/09 20:53:45;;;;;;;9.55;6.68;;;;;;;6.98;62.32;100122.19;10387426;28;20053;-63
2022/10/09 20:58:47;;;;;;;9.57;4.28;;;;;;;7.05;62.34;100122.78;10387847;28;20045;-63
2022/10/09 21:03:49;;;;;;;7.30;4.07;;;;;;;7.12;62.09;100116.41;10387374;28;20144;-63
2022/10/09 21:08:52;;;;;;;8.82;5.40;;;;;;;7.04;62.34;100121.91;10387200;28;20095;-63
2022/10/09 21:13:54;;;;;;;10.68;4.82;;;;;;;7.08;62.37;100126.09;10386917;28;20049;-63
2022/10/09 21:18:59;;;;;;;11.13;4.40;;;;;;;6.95;62.58;100121.47;10386324;28;20072;-63
2022/10/09 21:24:01;;;;;;;7.78;4.00;;;;;;;6.86;62.71;100119.25;10386581;28;20045;-63
2022/10/09 21:29:04;;;;;;;7.20;4.35;;;;;;;6.75;62.82;100121.47;10385987;28;20413;-63
2022/10/09 21:34:05;;;;;;;12.95;5.35;;;;;;;6.61;62.66;100113.38;10387978;28;20111;-63
2022/10/09 21:39:08;;;;;;;7.60;4.53;;;;;;;6.38;62.88;100118.66;10385886;28;20059;-63
2022/10/09 21:44:10;;;;;;;11.40;4.63;;;;;;;6.41;63.07;100115.94;10386445;28;20053;-63
2022/10/09 21:49:20;;;;;;;6.35;4.00;;;;;;;6.47;63.45;100113.09;10385641;28;21135;-63
2022/10/09 21:54:22;;;;;;;13.85;4.30;;;;;;;6.50;62.99;100111.22;10385421;28;20088;-63
2022/10/09 21:59:23;;;;;;;7.85;3.90;;;;;;;6.52;63.05;100106.81;10367781;28;20160;-63
2022/10/09 22:04:25;;;;;;;9.02;4.40;;;;;;;6.52;62.91;100105.94;10384514;28;20060;-63
2022/10/09 22:09:27;;;;;;;8.15;4.00;;;;;;;6.47;62.80;100103.53;10385534;28;20058;-63
2022/10/09 22:14:30;;;;;;;16.83;4.72;;;;;;;6.33;62.77;100098.03;10382835;28;20072;-63
2022/10/09 22:19:31;;;;;;;8.98;3.92;;;;;;;6.21;63.33;100101.09;10384836;28;20064;-63
2022/10/09 22:24:33;;;;;;;7.70;3.45;;;;;;;6.13;63.71;100100.53;10384952;28;20045;-63
2022/10/09 22:29:37;;;;;;;7.82;4.10;;;;;;;6.25;63.40;100094.91;10384695;28;20065;-63
2022/10/09 22:34:38;;;;;;;8.02;3.72;;;;;;;6.13;63.45;100085.81;10383591;28;20045;-63
2022/10/09 22:39:40;;;;;;;8.88;3.75;;;;;;;5.97;63.60;100084.72;10383655;28;20373;-63
2022/10/09 22:44:42;;;;;;;6.35;3.78;;;;;;;6.00;63.48;100082.00;10384493;28;20520;-64
2022/10/09 22:49:43;;;;;;;5.35;3.65;;;;;;;6.02;63.63;100080.19;10383501;28;20484;-63
2022/10/09 22:54:45;;;;;;;7.07;3.75;;;;;;;6.05;63.60;100079.22;10384415;28;20617;-63
2022/10/09 22:59:46;;;;;;;6.22;3.60;;;;;;;5.93;63.45;100074.50;10383635;28;20053;-63
2022/10/09 23:04:48;;;;;;;8.15;3.75;;;;;;;5.76;63.83;100075.16;10383752;28;20048;-63
2022/10/09 23:09:50;;;;;;;9.70;3.40;;;;;;;5.75;63.91;100072.63;10383363;28;20065;-63
2022/10/09 23:14:52;;;;;;;7.03;4.20;;;;;;;5.74;63.79;100073.53;10384020;28;20452;-63